Archival Weather

Republic

Farmingdale, New York (KFRG)

Report from: Wednesday, February 21, 2024 6:53 AM EST
Current time: Monday, June 24, 2024 6:33 AM EDT

Current weather – Weather history – Daily summaries
Weather forecast

Temperature-2.8°C (27.0°F)
Wind chill-5.8°C (21.6°F)
Dew point-7.2°C (19.0°F)
Winds 4 kts (2.1 m/s, 4.6 mph) North-Northeast (30°)
Visibility10 mi. (16.1 km)
Clouds Ceiling: Broken clouds 3,400 ft. (1,036 m)
Altimeter30.49 in.Hg (1033 mB)
Relative humidity72 %
Density altitude-2,789 ft. (-850 m)
Sea-level pressure103.3 kPa (1033 mB, 30.49 in.Hg)
Max temp last 6 hours-2.8°C (27.0°F)
Min temp last 6 hours-4.4°C (24.1°F)
Remarks Automated weather observing station without precipitation discriminator
Pressure rising more slowly
Flight conditions Visual Meteorological Conditions
Raw dataKFRG 211153Z 03004KT 10SM BKN034 M03/M07 A3049 RMK AO1 SLP326 T10281072 11028 21044 51005
An error has occurred. This application may no longer respond until reloaded. Reload 🗙